CheckWX is a tool to help pilots better visualize weather data.  It is not intended as a substitute for an official pre-flight weather briefing.

22:31:27 UTC

KSME TAF
Lake Cumberland Regional Airport
Somerset, Kentucky, USA
KSME 061750Z 0618/0718 VRB03KT P6SM VCSH SCT045 OVC070 FM062100 VRB03KT P6SM SCT030 OVC050 FM070300 VRB05KT P6SM OVC030 FM071200 07005KT P6SM SCT035

Dec-6@
18:00 UTC

Dec-6 @ 18:00 UTC

Dec-6@
21:00 UTC

Dec-6 @ 21:00 UTC

KSME 061750Z 0618/0718 VRB03KT P6SM VCSH SCT045 OVC070

Expired

Wind
  • Variable at 3 KTS
Cloud Levels
  • Scattered at 4,500' AGL
  • Overcast at 7,000' AGL

Dec-6@
21:00 UTC

Dec-6 @ 21:00 UTC

Dec-7@
03:00 UTC

Dec-7 @ 03:00 UTC

FM062100 VRB03KT P6SM SCT030 OVC050

From

From Standard forecast or significant change

Wind
  • Variable at 3 KTS
Cloud Levels
  • Scattered at 3,000' AGL
  • Overcast at 5,000' AGL

Dec-7@
03:00 UTC

Dec-7 @ 03:00 UTC

Dec-7@
12:00 UTC

Dec-7 @ 12:00 UTC

FM070300 VRB05KT P6SM OVC030

From

From Standard forecast or significant change

Wind
  • Variable at 5 KTS
Cloud Levels
  • Overcast at 3,000' AGL

Dec-7@
12:00 UTC

Dec-7 @ 12:00 UTC

Dec-7@
18:00 UTC

Dec-7 @ 18:00 UTC

FM071200 07005KT P6SM SCT035

From

From Standard forecast or significant change

Wind
  • 070° at 5 KTS
Cloud Levels
  • Scattered at 3,500' AGL